Time;durP1;ratioP1;P1;durP2;ratioP2;P2;SDS_P1;SDS_P2;PMS_P1;PMS_P2;Temp;Humidity;BMP_temperature;BMP_pressure;BME280_temperature;BME280_humidity;BME280_pressure;Samples;Min_cycle;Max_cycle;Signal;HPM_P1;HPM_P2
2022/03/16 00:00:14;;;;;;;4.13;1.00;;;20.30;99.90;;;;;;5035636;28;22135;-66
2022/03/16 00:02:42;;;;;;;7.40;1.58;;;20.20;99.90;;;;;;5030810;28;20030;-65
2022/03/16 00:05:09;;;;;;;4.40;1.50;;;20.20;99.90;;;;;;5025954;28;20034;-66
2022/03/16 00:07:37;;;;;;;6.05;1.40;;;20.20;99.90;;;;;;5028585;28;20409;-66
2022/03/16 00:10:07;;;;;;;5.20;1.00;;;20.30;99.90;;;;;;5029580;28;20056;-66
2022/03/16 00:12:38;;;;;;;6.40;1.88;;;20.20;99.90;;;;;;5020816;28;20607;-66
2022/03/16 00:15:06;;;;;;;6.38;2.13;;;20.10;99.90;;;;;;5027786;28;20021;-66
2022/03/16 00:17:34;;;;;;;4.15;1.52;;;20.30;99.90;;;;;;5034992;28;20041;-66
2022/03/16 00:20:01;;;;;;;4.28;1.10;;;20.30;99.90;;;;;;5036339;28;20018;-66
2022/03/16 00:22:29;;;;;;;4.55;2.15;;;20.30;99.90;;;;;;5036247;28;20116;-66
2022/03/16 00:24:56;;;;;;;5.88;0.93;;;20.30;99.90;;;;;;5033068;28;20029;-66
2022/03/16 00:27:23;;;;;;;4.28;1.10;;;20.40;99.90;;;;;;5026572;28;20035;-66
2022/03/16 00:29:50;;;;;;;5.18;0.80;;;20.40;99.90;;;;;;5028930;28;20496;-66
2022/03/16 00:32:18;;;;;;;7.53;1.48;;;20.40;99.90;;;;;;5029807;28;20508;-66
2022/03/16 00:34:45;;;;;;;5.18;0.95;;;20.50;99.90;;;;;;5037947;28;20030;-66
2022/03/16 00:37:12;;;;;;;3.45;0.85;;;20.50;99.90;;;;;;5047665;28;20026;-65
2022/03/16 00:39:39;;;;;;;4.18;0.50;;;20.60;99.90;;;;;;5043381;28;20040;-65
2022/03/16 00:42:07;;;;;;;5.63;0.68;;;20.50;99.90;;;;;;5044923;28;20041;-65
2022/03/16 00:44:34;;;;;;;6.40;0.70;;;20.80;99.90;;;;;;5055148;28;20023;-65
2022/03/16 00:47:05;;;;;;;4.82;1.13;;;20.90;99.90;;;;;;5056588;28;20032;-65
2022/03/16 00:49:33;;;;;;;4.25;0.95;;;21.10;99.90;;;;;;5050959;28;20029;-65
2022/03/16 00:52:01;;;;;;;4.50;0.60;;;21.30;99.90;;;;;;5047443;28;20033;-65
2022/03/16 00:54:29;;;;;;;5.88;1.13;;;21.40;99.90;;;;;;5040182;28;20046;-65
2022/03/16 00:56:56;;;;;;;6.55;1.25;;;21.40;99.90;;;;;;5052635;28;20029;-65
2022/03/16 00:59:24;;;;;;;6.32;1.00;;;21.40;99.90;;;;;;5053003;28;20044;-65
2022/03/16 01:01:51;;;;;;;4.47;0.90;;;21.50;99.90;;;;;;5055236;28;20092;-65
2022/03/16 01:04:18;;;;;;;6.97;1.48;;;21.40;99.90;;;;;;5052083;28;20279;-65
2022/03/16 01:06:45;;;;;;;6.40;0.82;;;21.50;99.90;;;;;;5052457;28;20037;-65
2022/03/16 01:09:13;;;;;;;5.32;1.13;;;21.50;99.90;;;;;;5051185;28;20036;-65
2022/03/16 01:11:40;;;;;;;5.55;1.13;;;21.40;99.90;;;;;;5053210;28;20026;-65
2022/03/16 01:14:07;;;;;;;4.88;0.98;;;21.40;99.90;;;;;;5046525;28;20022;-65
2022/03/16 01:16:36;;;;;;;5.35;0.95;;;21.50;99.90;;;;;;5045969;28;20053;-65
2022/03/16 01:19:04;;;;;;;5.22;0.82;;;21.50;99.90;;;;;;5034760;28;20036;-65
2022/03/16 01:21:32;;;;;;;4.80;1.13;;;21.70;99.90;;;;;;5046515;28;20030;-65
2022/03/16 01:23:59;;;;;;;7.32;1.23;;;21.70;99.90;;;;;;5051212;28;20045;-65
2022/03/16 01:26:27;;;;;;;4.25;0.75;;;21.90;99.90;;;;;;5049738;28;20034;-65
2022/03/16 01:28:54;;;;;;;6.40;0.90;;;22.00;99.90;;;;;;5045768;28;20024;-65
2022/03/16 01:31:22;;;;;;;5.50;0.93;;;22.10;99.90;;;;;;5045877;28;20081;-65
2022/03/16 01:33:49;;;;;;;5.95;1.33;;;22.40;99.90;;;;;;5050889;28;20028;-65
2022/03/16 01:36:17;;;;;;;8.70;1.00;;;22.80;99.90;;;;;;5050602;28;20030;-65
2022/03/16 01:38:44;;;;;;;5.15;1.10;;;23.10;99.90;;;;;;5051794;28;20030;-65
2022/03/16 01:41:11;;;;;;;5.28;1.30;;;23.30;99.90;;;;;;5045860;28;20037;-65
2022/03/16 01:43:39;;;;;;;8.25;1.52;;;23.30;99.90;;;;;;5053452;28;20127;-64
2022/03/16 01:46:06;;;;;;;5.20;1.50;;;23.20;99.90;;;;;;5053560;28;20041;-65
2022/03/16 01:48:33;;;;;;;5.78;1.52;;;23.30;99.90;;;;;;5052282;28;20013;-64
2022/03/16 01:51:01;;;;;;;8.88;1.60;;;23.20;99.90;;;;;;5050014;28;20028;-64
2022/03/16 01:53:28;;;;;;;4.60;0.90;;;23.10;99.90;;;;;;5054114;28;20033;-65
2022/03/16 01:55:56;;;;;;;8.45;1.60;;;23.30;99.90;;;;;;5050055;28;20029;-65
2022/03/16 01:58:23;;;;;;;7.25;1.15;;;23.60;99.90;;;;;;5046742;28;20026;-65
2022/03/16 02:00:53;;;;;;;6.78;1.08;;;23.40;99.90;;;;;;5050763;28;20026;-64
2022/03/16 02:03:22;;;;;;;5.80;1.48;;;23.20;99.90;;;;;;5052440;28;20293;-64
2022/03/16 02:05:49;;;;;;;7.70;0.98;;;23.00;99.90;;;;;;5054873;28;20022;-64
2022/03/16 02:08:17;;;;;;;4.35;0.55;;;23.00;99.90;;;;;;5058844;28;20040;-64
2022/03/16 02:10:44;;;;;;;7.68;1.40;;;22.90;99.90;;;;;;5051803;28;20013;-64
2022/03/16 02:13:12;;;;;;;9.43;1.35;;;22.80;99.90;;;;;;5053610;28;20037;-64
2022/03/16 02:15:40;;;;;;;6.78;1.23;;;22.70;99.90;;;;;;5052345;28;20108;-64
2022/03/16 02:18:07;;;;;;;7.90;1.08;;;22.80;99.90;;;;;;5050348;28;20014;-64
2022/03/16 02:20:35;;;;;;;3.63;0.60;;;22.90;99.90;;;;;;5052529;28;20020;-64
2022/03/16 02:23:07;;;;;;;4.78;1.00;;;22.90;99.90;;;;;;5053276;28;20085;-64
2022/03/16 02:25:55;;;;;;;5.30;1.05;;;22.80;99.90;;;;;;5052563;28;20131;-64
2022/03/16 02:28:23;;;;;;;7.43;0.95;;;22.70;99.90;;;;;;5053884;28;20029;-63
2022/03/16 02:30:50;;;;;;;6.68;1.02;;;22.80;99.90;;;;;;5052715;28;20032;-64
2022/03/16 02:33:17;;;;;;;6.80;1.38;;;23.20;99.90;;;;;;5055386;28;20026;-64
2022/03/16 02:35:46;;;;;;;9.60;1.40;;;23.40;99.90;;;;;;5053521;28;20029;-64
2022/03/16 02:38:14;;;;;;;5.50;1.70;;;23.50;99.90;;;;;;5050010;28;20013;-65
2022/03/16 02:40:41;;;;;;;8.05;1.08;;;23.80;99.90;;;;;;5056085;28;20013;-66
2022/03/16 02:43:09;;;;;;;7.78;1.00;;;24.00;99.90;;;;;;5057626;28;20024;-66
2022/03/16 02:45:36;;;;;;;6.03;0.85;;;24.10;99.90;;;;;;5056686;28;20018;-66
2022/03/16 02:48:04;;;;;;;4.35;0.98;;;24.20;99.90;;;;;;5057780;28;20010;-66
2022/03/16 02:50:31;;;;;;;4.93;1.13;;;24.30;99.90;;;;;;5055092;28;20025;-65
2022/03/16 02:52:59;;;;;;;5.50;0.88;;;24.30;99.90;;;;;;5056709;28;20040;-66
2022/03/16 02:55:26;;;;;;;3.45;0.80;;;24.20;99.90;;;;;;5052367;28;20022;-66
2022/03/16 02:57:53;;;;;;;6.68;1.25;;;24.40;99.90;;;;;;5038497;28;20053;-66
2022/03/16 03:00:21;;;;;;;8.07;1.05;;;24.40;99.90;;;;;;5047376;28;20073;-65
2022/03/16 03:02:48;;;;;;;5.70;1.15;;;24.30;99.90;;;;;;5058267;28;20065;-67
2022/03/16 03:05:15;;;;;;;6.05;0.80;;;24.50;99.90;;;;;;5056030;28;20021;-65
2022/03/16 03:07:42;;;;;;;9.43;1.85;;;24.60;99.90;;;;;;5053178;28;20087;-66
2022/03/16 03:10:10;;;;;;;5.18;1.02;;;24.50;99.90;;;;;;5055324;28;20014;-66
2022/03/16 03:12:37;;;;;;;6.55;1.38;;;24.40;99.90;;;;;;5057378;28;20025;-65
2022/03/16 03:15:09;;;;;;;5.88;0.82;;;24.20;99.90;;;;;;5055362;28;20021;-66
2022/03/16 03:17:37;;;;;;;6.00;1.13;;;24.20;99.90;;;;;;5057928;28;20014;-66
2022/03/16 03:20:06;;;;;;;7.75;1.40;;;23.90;99.90;;;;;;5056242;28;20026;-66
2022/03/16 03:22:34;;;;;;;10.50;1.73;;;23.80;99.90;;;;;;5057637;28;20029;-66
2022/03/16 03:25:01;;;;;;;5.13;0.98;;;23.70;99.90;;;;;;5050523;28;20018;-66
2022/03/16 03:27:30;;;;;;;4.40;1.33;;;23.60;99.90;;;;;;5056886;28;20021;-65
2022/03/16 03:29:57;;;;;;;7.78;1.35;;;23.70;99.90;;;;;;5055891;28;20033;-66
2022/03/16 03:32:25;;;;;;;6.20;1.08;;;23.80;99.90;;;;;;5057216;28;20037;-66
2022/03/16 03:34:53;;;;;;;8.57;0.98;;;23.90;99.90;;;;;;5056412;28;20013;-66
2022/03/16 03:37:21;;;;;;;5.43;0.85;;;23.90;99.90;;;;;;5056336;28;20029;-66
2022/03/16 03:39:49;;;;;;;7.90;1.10;;;23.90;99.90;;;;;;5052437;28;20053;-66
2022/03/16 03:42:16;;;;;;;7.93;1.27;;;23.90;99.90;;;;;;5039376;28;20022;-66
2022/03/16 03:44:43;;;;;;;8.40;1.33;;;24.20;99.90;;;;;;5056226;28;20017;-66
2022/03/16 03:47:11;;;;;;;5.43;1.13;;;24.20;99.90;;;;;;5057098;28;20013;-66
2022/03/16 03:49:40;;;;;;;8.98;1.13;;;24.20;99.90;;;;;;5056109;28;20010;-66
2022/03/16 03:52:08;;;;;;;10.05;1.42;;;24.10;99.90;;;;;;5051314;28;20048;-66
2022/03/16 03:54:35;;;;;;;7.28;1.48;;;23.90;99.90;;;;;;5053844;28;20030;-66
2022/03/16 03:57:03;;;;;;;10.30;1.52;;;24.00;99.90;;;;;;5057499;28;20097;-66
2022/03/16 03:59:30;;;;;;;9.10;2.10;;;23.90;99.90;;;;;;5056800;28;20129;-66
2022/03/16 04:01:58;;;;;;;8.30;1.02;;;23.80;99.90;;;;;;5057751;28;20026;-66
2022/03/16 04:04:25;;;;;;;5.80;0.88;;;23.80;99.90;;;;;;5048154;28;20049;-66
2022/03/16 04:06:52;;;;;;;7.38;1.35;;;24.00;99.90;;;;;;5036916;28;20059;-65
2022/03/16 04:09:20;;;;;;;8.00;1.50;;;24.00;99.90;;;;;;5055531;28;20033;-66
2022/03/16 04:11:47;;;;;;;8.75;1.63;;;23.80;99.90;;;;;;5057281;28;20026;-66
2022/03/16 04:14:16;;;;;;;8.45;1.27;;;23.80;99.90;;;;;;5055775;28;20036;-66
2022/03/16 04:16:44;;;;;;;5.97;1.20;;;23.60;99.90;;;;;;5054826;28;20045;-66
2022/03/16 04:19:11;;;;;;;9.30;1.05;;;23.50;99.90;;;;;;5059142;28;20025;-66
2022/03/16 04:21:38;;;;;;;5.07;1.00;;;23.60;99.90;;;;;;5059935;28;20013;-66
2022/03/16 04:24:06;;;;;;;9.20;1.38;;;23.40;99.90;;;;;;5058940;28;20026;-66
2022/03/16 04:26:34;;;;;;;8.25;1.50;;;23.30;99.90;;;;;;5054757;28;20014;-66
2022/03/16 04:29:01;;;;;;;4.57;0.98;;;23.50;99.90;;;;;;5040862;28;20014;-66
2022/03/16 04:31:28;;;;;;;6.18;1.38;;;23.50;99.90;;;;;;5059365;28;20012;-66
2022/03/16 04:33:57;;;;;;;8.45;1.02;;;23.50;99.90;;;;;;5055924;28;20014;-65
2022/03/16 04:36:28;;;;;;;4.95;0.73;;;23.50;99.90;;;;;;5060370;28;20029;-66
2022/03/16 04:38:57;;;;;;;8.23;1.00;;;23.30;99.90;;;;;;5060654;28;20014;-66
2022/03/16 04:41:24;;;;;;;6.18;0.95;;;23.10;99.90;;;;;;5059120;28;20029;-66
2022/03/16 04:43:52;;;;;;;7.90;1.00;;;23.00;99.90;;;;;;5060645;28;20040;-66
2022/03/16 04:46:19;;;;;;;2.90;0.60;;;23.00;99.90;;;;;;5058769;28;20044;-66
2022/03/16 04:48:46;;;;;;;6.88;0.63;;;23.00;99.90;;;;;;5059433;28;20037;-65
2022/03/16 04:51:14;;;;;;;5.00;0.95;;;22.90;99.90;;;;;;5044781;28;20085;-66
2022/03/16 04:53:41;;;;;;;5.35;1.08;;;23.00;99.90;;;;;;5060378;28;20022;-66
2022/03/16 04:56:08;;;;;;;7.80;1.65;;;23.10;99.90;;;;;;5058910;28;20082;-65
2022/03/16 04:58:36;;;;;;;10.23;0.93;;;23.20;99.90;;;;;;5043994;28;20106;-66
2022/03/16 05:01:03;;;;;;;8.85;1.85;;;23.20;99.90;;;;;;5041384;28;20074;-66
2022/03/16 05:03:31;;;;;;;5.53;1.15;;;23.20;99.90;;;;;;5056916;28;20041;-66
2022/03/16 05:05:58;;;;;;;7.07;0.80;;;23.10;99.90;;;;;;5054708;28;20077;-66
2022/03/16 05:08:25;;;;;;;7.95;0.88;;;23.10;99.90;;;;;;5059728;28;20005;-66
2022/03/16 05:10:53;;;;;;;6.07;1.10;;;23.00;99.90;;;;;;5059525;28;20014;-66
2022/03/16 05:13:20;;;;;;;6.97;1.15;;;23.10;99.90;;;;;;5056825;28;20013;-66
2022/03/16 05:15:48;;;;;;;10.23;1.67;;;23.20;99.90;;;;;;5051374;28;20057;-66
2022/03/16 05:18:15;;;;;;;7.85;1.25;;;23.40;99.90;;;;;;5055003;28;20044;-65
2022/03/16 05:20:42;;;;;;;6.28;0.85;;;23.50;99.90;;;;;;5058646;28;20022;-66
2022/03/16 05:23:09;;;;;;;10.40;2.63;;;23.60;99.90;;;;;;5056160;28;20017;-66
2022/03/16 05:25:37;;;;;;;8.35;1.20;;;23.50;99.90;;;;;;5058533;28;20017;-65
2022/03/16 05:28:04;;;;;;;8.63;1.70;;;23.40;99.90;;;;;;5059071;28;20025;-65
2022/03/16 05:30:31;;;;;;;6.75;1.10;;;23.40;99.90;;;;;;5057104;28;20042;-66
2022/03/16 05:33:00;;;;;;;10.52;1.70;;;23.40;99.90;;;;;;5043699;28;20022;-66
2022/03/16 05:35:29;;;;;;;11.20;1.50;;;23.50;99.90;;;;;;5050156;28;20064;-65
2022/03/16 05:37:56;;;;;;;12.95;1.98;;;23.50;99.90;;;;;;5059824;28;20025;-66
2022/03/16 05:40:23;;;;;;;12.27;1.38;;;23.40;99.90;;;;;;5058908;28;20013;-66
2022/03/16 05:42:51;;;;;;;12.57;1.20;;;23.40;99.90;;;;;;5058740;28;20017;-65
2022/03/16 05:45:18;;;;;;;6.43;1.55;;;23.40;99.90;;;;;;5056683;28;20013;-66
2022/03/16 05:47:46;;;;;;;13.05;1.63;;;23.40;99.90;;;;;;5058099;28;20041;-65
2022/03/16 05:50:13;;;;;;;8.77;1.08;;;23.40;99.90;;;;;;5047613;28;20032;-66
2022/03/16 05:52:43;;;;;;;11.07;1.00;;;23.20;99.90;;;;;;5059002;28;20025;-66
2022/03/16 05:55:13;;;;;;;8.80;1.60;;;23.20;99.90;;;;;;5051256;28;20014;-65
2022/03/16 05:57:43;;;;;;;10.43;1.70;;;23.00;99.90;;;;;;5049119;28;20051;-65
2022/03/16 06:00:14;;;;;;;10.65;1.30;;;23.00;99.90;;;;;;5047049;28;20037;-65
2022/03/16 06:02:45;;;;;;;9.93;1.23;;;23.00;99.90;;;;;;5059115;28;20040;-66
2022/03/16 06:05:15;;;;;;;12.15;1.30;;;22.90;99.90;;;;;;5056363;28;20052;-65
2022/03/16 06:07:43;;;;;;;8.43;1.30;;;22.80;99.90;;;;;;5058222;28;20018;-66
2022/03/16 06:10:15;;;;;;;11.77;2.05;;;22.80;99.90;;;;;;5057495;28;20006;-66
2022/03/16 06:12:52;;;;;;;15.10;1.60;;;22.90;99.90;;;;;;5059113;28;20006;-66
2022/03/16 06:15:19;;;;;;;16.40;2.10;;;22.90;99.90;;;;;;5053246;28;20018;-65
2022/03/16 06:17:47;;;;;;;9.35;1.20;;;22.90;99.90;;;;;;5057200;28;20037;-66
2022/03/16 06:20:14;;;;;;;10.15;1.35;;;22.80;99.90;;;;;;5051949;28;20040;-66
2022/03/16 06:22:41;;;;;;;11.45;1.60;;;22.80;99.90;;;;;;5055687;28;20039;-66
2022/03/16 06:25:09;;;;;;;8.13;2.00;;;22.80;99.90;;;;;;5049998;28;20065;-65
2022/03/16 06:27:36;;;;;;;9.00;1.35;;;22.80;99.90;;;;;;5038711;28;20026;-66
2022/03/16 06:30:04;;;;;;;11.07;1.40;;;22.70;99.90;;;;;;5046217;28;20073;-66
2022/03/16 06:32:32;;;;;;;9.40;2.15;;;22.80;99.90;;;;;;5054422;28;20036;-66
2022/03/16 06:34:59;;;;;;;11.32;2.10;;;22.90;99.90;;;;;;5039079;28;20034;-66
2022/03/16 06:37:26;;;;;;;12.55;2.25;;;22.90;99.90;;;;;;5038503;28;20141;-66
2022/03/16 06:39:53;;;;;;;12.27;1.60;;;22.80;99.90;;;;;;5049243;28;20021;-66
2022/03/16 06:42:21;;;;;;;7.80;1.52;;;22.80;99.90;;;;;;5056753;28;20048;-65
2022/03/16 06:44:48;;;;;;;9.52;1.95;;;22.80;99.90;;;;;;5039370;28;20021;-66
2022/03/16 06:47:15;;;;;;;10.23;1.52;;;22.70;99.90;;;;;;5038499;28;20014;-66
2022/03/16 06:49:42;;;;;;;10.63;1.25;;;22.70;99.90;;;;;;5042505;28;20044;-66
2022/03/16 06:52:10;;;;;;;11.52;1.75;;;22.60;99.90;;;;;;5058484;28;20044;-66
2022/03/16 06:54:37;;;;;;;13.27;1.52;;;22.60;99.90;;;;;;5054118;28;20040;-66
2022/03/16 06:57:04;;;;;;;10.65;1.42;;;22.60;99.90;;;;;;5057350;28;20038;-66
2022/03/16 06:59:32;;;;;;;7.85;1.10;;;22.60;99.90;;;;;;5052542;28;20029;-65
2022/03/16 07:01:59;;;;;;;12.88;1.88;;;22.50;99.90;;;;;;5058081;28;20013;-65
2022/03/16 07:04:26;;;;;;;10.07;2.08;;;22.60;99.90;;;;;;5056383;28;20148;-65
2022/03/16 07:06:54;;;;;;;11.73;2.25;;;22.50;99.90;;;;;;5057520;28;20002;-66
2022/03/16 07:09:21;;;;;;;12.48;1.75;;;22.60;99.90;;;;;;5056413;28;20017;-66
2022/03/16 07:11:48;;;;;;;12.80;1.40;;;22.60;99.90;;;;;;5058015;28;20013;-66
2022/03/16 07:14:31;;;;;;;11.55;1.58;;;22.50;99.90;;;;;;5057045;28;20065;-65
2022/03/16 07:16:59;;;;;;;14.15;1.63;;;22.50;99.90;;;;;;5054217;28;20093;-66
2022/03/16 07:19:26;;;;;;;12.70;1.92;;;22.60;99.90;;;;;;5038251;28;20036;-66
2022/03/16 07:21:54;;;;;;;18.33;2.47;;;22.50;99.90;;;;;;5037156;28;20018;-66
2022/03/16 07:24:21;;;;;;;14.88;2.75;;;22.50;99.90;;;;;;5054559;28;20026;-65
2022/03/16 07:26:48;;;;;;;9.75;1.58;;;22.40;99.90;;;;;;5057018;28;20018;-66
2022/03/16 07:29:15;;;;;;;11.52;1.98;;;22.40;99.90;;;;;;5056342;28;20530;-65
2022/03/16 07:31:42;;;;;;;18.05;2.47;;;22.40;99.90;;;;;;5041652;28;20020;-65
2022/03/16 07:34:10;;;;;;;14.63;2.38;;;22.40;99.90;;;;;;5055918;28;20018;-66
2022/03/16 07:36:37;;;;;;;20.25;2.25;;;22.40;99.90;;;;;;5038220;28;20045;-66
2022/03/16 07:39:04;;;;;;;13.35;2.45;;;22.40;99.90;;;;;;5037766;28;20006;-65
2022/03/16 07:41:31;;;;;;;8.88;1.67;;;22.40;99.90;;;;;;5056552;28;20033;-66
2022/03/16 07:43:59;;;;;;;13.13;2.10;;;22.40;99.90;;;;;;5057028;28;20002;-66
2022/03/16 07:46:26;;;;;;;19.42;2.65;;;22.40;99.90;;;;;;5056335;28;20017;-66
2022/03/16 07:48:53;;;;;;;10.63;1.75;;;22.40;99.90;;;;;;5055544;28;20025;-65
2022/03/16 07:51:20;;;;;;;11.68;2.80;;;22.40;99.90;;;;;;5056449;28;20081;-66
2022/03/16 07:53:48;;;;;;;16.33;2.70;;;22.30;99.90;;;;;;5052320;28;20076;-66
2022/03/16 07:56:15;;;;;;;8.85;2.22;;;22.30;99.90;;;;;;5058838;28;20037;-66
2022/03/16 07:58:45;;;;;;;12.38;2.10;;;22.30;99.90;;;;;;5056535;28;20056;-66
2022/03/16 08:01:12;;;;;;;21.52;2.72;;;22.30;99.90;;;;;;5059364;28;20045;-65
2022/03/16 08:03:39;;;;;;;11.73;1.80;;;22.30;99.90;;;;;;5061002;28;20057;-66
2022/03/16 08:06:07;;;;;;;14.25;2.92;;;22.30;99.90;;;;;;5059628;28;20036;-66
2022/03/16 08:08:39;;;;;;;13.40;3.13;;;22.30;99.90;;;;;;5061108;28;20020;-66
2022/03/16 08:11:07;;;;;;;15.32;2.50;;;22.30;99.90;;;;;;5059676;28;20010;-65
2022/03/16 08:13:38;;;;;;;11.88;2.50;;;22.20;99.90;;;;;;5060410;28;20014;-66
2022/03/16 08:16:06;;;;;;;14.40;2.83;;;22.20;99.90;;;;;;5059411;28;20029;-66
2022/03/16 08:18:34;;;;;;;15.80;2.67;;;22.10;99.90;;;;;;5060980;28;20018;-66
2022/03/16 08:21:02;;;;;;;15.38;2.42;;;22.10;99.90;;;;;;5059574;28;20009;-66
2022/03/16 08:23:29;;;;;;;14.90;2.38;;;22.10;99.90;;;;;;5061298;28;20733;-66
2022/03/16 08:25:58;;;;;;;15.23;2.80;;;22.00;99.90;;;;;;5058817;28;20029;-66
2022/03/16 08:28:26;;;;;;;10.15;1.58;;;22.00;99.90;;;;;;5047597;28;20044;-67
2022/03/16 08:30:54;;;;;;;9.35;1.92;;;22.10;99.90;;;;;;5055129;28;20017;-66
2022/03/16 08:33:23;;;;;;;12.35;2.72;;;22.10;99.90;;;;;;5056117;28;20024;-66
2022/03/16 08:35:51;;;;;;;15.15;2.45;;;22.10;99.90;;;;;;5046360;28;20026;-66
2022/03/16 08:38:19;;;;;;;8.25;1.73;;;22.10;99.90;;;;;;5041334;28;20042;-66
2022/03/16 08:40:46;;;;;;;13.07;1.70;;;22.10;99.90;;;;;;5044408;28;20022;-65
2022/03/16 08:43:14;;;;;;;10.60;2.90;;;22.10;99.90;;;;;;5041010;28;20049;-66
2022/03/16 08:45:44;;;;;;;12.95;1.90;;;22.10;99.90;;;;;;5052618;28;20018;-65
2022/03/16 08:48:11;;;;;;;14.10;2.30;;;22.10;99.90;;;;;;5049840;28;20018;-66
2022/03/16 08:50:39;;;;;;;11.52;1.70;;;22.10;99.90;;;;;;5053231;28;20014;-66
2022/03/16 08:53:07;;;;;;;14.82;2.10;;;22.10;99.90;;;;;;5060127;28;20056;-66
2022/03/16 08:55:34;;;;;;;15.88;3.13;;;22.10;99.90;;;;;;5058404;28;20017;-66
2022/03/16 08:58:01;;;;;;;10.20;2.03;;;22.10;99.90;;;;;;5051502;28;20025;-66
2022/03/16 09:00:29;;;;;;;14.70;2.35;;;22.10;99.90;;;;;;5051006;28;20018;-65
2022/03/16 09:02:56;;;;;;;11.32;2.33;;;22.10;99.90;;;;;;5054883;28;20060;-66
2022/03/16 09:05:24;;;;;;;8.98;1.58;;;22.10;99.90;;;;;;5053701;28;20022;-66
2022/03/16 09:07:51;;;;;;;10.95;2.47;;;22.10;99.90;;;;;;5057511;28;20026;-66
2022/03/16 09:10:19;;;;;;;19.50;3.00;;;22.10;99.90;;;;;;5055478;28;20017;-66
2022/03/16 09:12:46;;;;;;;12.00;2.35;;;22.10;99.90;;;;;;5055246;28;20054;-66
2022/03/16 09:15:13;;;;;;;16.27;2.38;;;22.00;99.90;;;;;;5048802;28;20032;-66
2022/03/16 09:17:41;;;;;;;8.93;1.63;;;22.00;99.90;;;;;;5042993;28;20033;-66
2022/03/16 09:20:08;;;;;;;12.13;1.77;;;22.10;99.90;;;;;;5055627;28;20044;-66
2022/03/16 09:22:35;;;;;;;12.10;2.80;;;22.10;99.90;;;;;;5057188;28;20055;-66
2022/03/16 09:25:07;;;;;;;14.00;2.70;;;22.10;99.90;;;;;;5051413;28;20032;-66
2022/03/16 09:27:35;;;;;;;11.70;2.42;;;22.10;99.90;;;;;;5057775;28;20024;-66
2022/03/16 09:30:07;;;;;;;14.25;2.13;;;22.00;99.90;;;;;;5055071;28;20325;-66
2022/03/16 09:32:35;;;;;;;11.18;2.00;;;21.90;99.90;;;;;;5058042;28;20029;-66
2022/03/16 09:35:04;;;;;;;11.60;1.77;;;21.90;99.90;;;;;;5057223;28;20033;-66
2022/03/16 09:37:31;;;;;;;11.95;2.47;;;21.90;99.90;;;;;;5057382;28;20032;-66
2022/03/16 09:39:58;;;;;;;7.53;1.23;;;21.90;99.90;;;;;;5056681;28;20030;-66
2022/03/16 09:42:29;;;;;;;16.35;2.40;;;21.90;99.90;;;;;;5052291;28;20109;-66
2022/03/16 09:45:00;;;;;;;12.77;2.47;;;21.90;99.90;;;;;;5055566;28;20071;-66
2022/03/16 09:47:27;;;;;;;11.77;3.15;;;21.90;99.90;;;;;;5049757;28;20032;-66
2022/03/16 09:49:55;;;;;;;10.85;1.65;;;21.80;99.90;;;;;;5046141;28;20042;-66
2022/03/16 09:52:26;;;;;;;12.98;1.92;;;21.80;99.90;;;;;;5051923;28;20033;-66
2022/03/16 09:54:56;;;;;;;13.95;1.90;;;21.80;99.90;;;;;;5056375;28;20037;-66
2022/03/16 09:57:27;;;;;;;10.75;2.33;;;21.80;99.90;;;;;;5056673;28;20100;-66
2022/03/16 09:59:54;;;;;;;13.43;1.77;;;21.80;99.90;;;;;;5052222;28;20018;-66
2022/03/16 10:02:21;;;;;;;12.35;2.00;;;21.80;99.90;;;;;;5056276;28;20017;-66
2022/03/16 10:04:49;;;;;;;9.55;1.88;;;21.90;99.90;;;;;;5051532;28;20034;-66
2022/03/16 10:07:16;;;;;;;10.95;2.08;;;21.80;99.90;;;;;;5054200;28;20022;-67
2022/03/16 10:15:19;;;;;;;10.05;1.83;;;21.80;99.90;;;;;;5054696;28;20196;-67
2022/03/16 10:17:57;;;;;;;12.18;2.30;;;21.70;99.90;;;;;;5054935;28;20056;-67
2022/03/16 10:20:33;;;;;;;11.07;2.38;;;21.70;99.90;;;;;;5056836;28;20034;-67
2022/03/16 10:23:14;;;;;;;9.48;1.60;;;21.70;99.90;;;;;;5047611;28;20014;-67
2022/03/16 10:25:43;;;;;;;11.38;2.53;;;21.70;99.90;;;;;;5047223;28;20016;-67
2022/03/16 10:28:22;;;;;;;12.07;2.28;;;21.70;99.90;;;;;;5049661;28;20044;-66
2022/03/16 10:30:54;;;;;;;14.95;2.00;;;21.70;99.90;;;;;;5057434;28;20045;-67
2022/03/16 10:33:23;;;;;;;7.03;1.58;;;21.70;99.90;;;;;;5056507;28;20024;-67
2022/03/16 10:36:05;;;;;;;9.73;1.38;;;21.70;99.90;;;;;;5046690;28;20069;-67
2022/03/16 10:38:47;;;;;;;11.75;1.52;;;21.70;99.90;;;;;;5052629;28;20030;-67
2022/03/16 10:47:22;;;;;;;8.57;1.45;;;21.60;99.90;;;;;;5003354;28;20034;-67
2022/03/16 10:50:09;;;;;;;16.60;1.70;;;21.60;99.90;;;;;;5047737;28;20064;-67
2022/03/16 10:52:37;;;;;;;12.00;1.92;;;21.60;99.90;;;;;;5054889;28;20018;-66
2022/03/16 10:55:05;;;;;;;8.30;1.48;;;21.60;99.90;;;;;;5049341;28;20056;-67
2022/03/16 10:57:33;;;;;;;9.98;1.67;;;21.60;99.90;;;;;;5053598;28;20041;-66
2022/03/16 11:00:02;;;;;;;12.48;1.55;;;21.50;99.90;;;;;;5053667;28;20026;-68
2022/03/16 11:02:34;;;;;;;10.00;1.35;;;21.50;99.90;;;;;;5051730;28;20030;-67
2022/03/16 11:05:01;;;;;;;11.40;1.65;;;21.60;99.90;;;;;;5051043;28;20013;-67
2022/03/16 11:07:30;;;;;;;12.20;2.20;;;21.50;99.90;;;;;;5053294;28;20049;-67
2022/03/16 11:09:58;;;;;;;14.02;1.88;;;21.60;99.90;;;;;;5054046;28;20036;-67
2022/03/16 11:15:11;;;;;;;11.15;1.83;;;21.60;99.90;;;;;;5052942;28;20024;-67
2022/03/16 11:17:40;;;;;;;10.27;1.45;;;21.70;99.90;;;;;;5055770;28;20017;-67
2022/03/16 11:20:08;;;;;;;13.20;1.95;;;21.70;99.90;;;;;;5053679;28;20017;-66
2022/03/16 11:26:11;;;;;;;8.73;1.08;;;21.60;99.90;;;;;;5046516;28;20068;-67
2022/03/16 11:29:25;;;;;;;14.75;2.13;;;21.50;99.90;;;;;;5072725;28;20026;-67
2022/03/16 11:32:12;;;;;;;12.48;2.30;;;21.50;99.90;;;;;;4979799;28;20020;-66
2022/03/16 11:34:46;;;;;;;12.98;1.27;;;21.50;99.90;;;;;;5045154;28;20060;-67
2022/03/16 11:37:14;;;;;;;11.90;1.77;;;21.40;99.90;;;;;;5057454;28;20117;-67
2022/03/16 11:39:49;;;;;;;10.65;1.95;;;21.50;99.90;;;;;;5058553;28;20053;-67
2022/03/16 11:42:20;;;;;;;13.93;2.40;;;21.50;99.90;;;;;;5058503;28;20010;-67
2022/03/16 11:44:47;;;;;;;6.20;1.27;;;21.40;99.90;;;;;;5051051;28;20044;-67
2022/03/16 11:47:33;;;;;;;9.60;1.20;;;21.40;99.90;;;;;;5049867;28;19998;-67
2022/03/16 11:50:19;;;;;;;8.48;1.20;;;21.40;99.90;;;;;;5055448;28;20012;-67
2022/03/16 11:53:00;;;;;;;8.73;0.95;;;21.40;99.90;;;;;;5059687;28;20040;-67
2022/03/16 11:55:47;;;;;;;10.88;1.60;;;21.40;99.90;;;;;;5048796;28;20018;-67
2022/03/16 11:58:25;;;;;;;6.28;1.17;;;21.40;99.90;;;;;;5048431;28;20024;-67
2022/03/16 12:01:28;;;;;;;8.40;1.00;;;21.40;99.90;;;;;;5058900;28;20036;-67
2022/03/16 12:04:16;;;;;;;9.93;1.40;;;21.30;99.90;;;;;;5053588;28;20053;-66
2022/03/16 12:07:12;;;;;;;8.30;1.63;;;21.30;99.90;;;;;;5057892;28;20075;-66
2022/03/16 12:10:13;;;;;;;10.27;1.23;;;21.30;99.90;;;;;;5060136;28;20009;-67
2022/03/16 12:13:08;;;;;;;5.72;1.23;;;21.20;99.90;;;;;;5006507;28;20045;-67
2022/03/16 12:15:42;;;;;;;6.40;1.35;;;21.20;99.90;;;;;;5049019;28;20063;-67
2022/03/16 12:18:15;;;;;;;9.98;1.10;;;21.10;99.90;;;;;;5052842;28;20101;-67
2022/03/16 12:20:53;;;;;;;14.07;2.43;;;21.20;99.90;;;;;;5055393;28;20056;-67
2022/03/16 12:23:52;;;;;;;10.45;1.35;;;21.20;99.90;;;;;;5057679;28;20025;-66
2022/03/16 12:26:25;;;;;;;10.45;1.80;;;21.20;99.90;;;;;;5056992;28;20018;-66
2022/03/16 12:29:01;;;;;;;7.82;1.20;;;21.10;99.90;;;;;;5056843;28;20032;-67
2022/03/16 12:31:30;;;;;;;9.77;1.65;;;21.20;99.90;;;;;;5045800;28;20010;-67
2022/03/16 12:33:58;;;;;;;10.52;1.45;;;21.20;99.90;;;;;;5057084;28;20097;-67
2022/03/16 12:36:31;;;;;;;12.07;1.60;;;21.10;99.90;;;;;;5057229;28;20072;-67
2022/03/16 12:39:01;;;;;;;7.97;1.40;;;21.10;99.90;;;;;;5058067;28;20064;-67
2022/03/16 12:44:20;;;;;;;5.22;1.15;;;21.10;99.90;;;;;;5048077;28;20036;-66
2022/03/16 12:47:04;;;;;;;8.75;1.35;;;21.10;99.90;;;;;;5054898;28;20021;-66
2022/03/16 12:49:38;;;;;;;9.48;2.10;;;21.10;99.90;;;;;;5055808;28;20041;-66
2022/03/16 12:52:07;;;;;;;11.38;1.40;;;21.10;99.90;;;;;;5054718;28;20021;-67
2022/03/16 12:54:36;;;;;;;11.90;2.13;;;21.10;99.90;;;;;;5052373;28;20053;-67
2022/03/16 12:57:08;;;;;;;9.38;1.35;;;21.20;99.90;;;;;;5050749;28;20021;-66
2022/03/16 12:59:55;;;;;;;9.73;1.65;;;21.20;99.90;;;;;;5059392;28;20036;-67
2022/03/16 13:02:30;;;;;;;14.68;1.83;;;21.10;99.90;;;;;;5048070;28;20101;-66
2022/03/16 13:04:58;;;;;;;13.57;3.10;;;21.10;99.90;;;;;;5056963;28;20037;-66
2022/03/16 13:07:27;;;;;;;13.02;2.42;;;21.10;99.90;;;;;;5057924;28;20025;-67
2022/03/16 13:09:54;;;;;;;9.57;1.85;;;21.10;99.90;;;;;;5058096;28;20037;-67
2022/03/16 13:12:26;;;;;;;12.85;1.75;;;21.10;99.90;;;;;;5053478;28;20018;-66
2022/03/16 13:14:57;;;;;;;9.32;2.42;;;20.90;99.90;;;;;;5055812;28;20681;-66